createdAt,value
2023-04-20T00:02:27.108Z,100485.41
2023-04-20T00:04:55.226Z,100479.75
2023-04-20T00:07:27.424Z,100471.66
2023-04-20T00:10:03.571Z,100465.63
2023-04-20T00:12:42.021Z,100460.78
2023-04-20T00:15:18.324Z,100467.25
2023-04-20T00:18:00.743Z,100459.16
2023-04-20T00:20:43.490Z,100460.78
2023-04-20T00:23:20.117Z,100455.13
2023-04-20T00:25:55.741Z,100461.97
2023-04-20T00:28:26.926Z,100459.16
2023-04-20T00:31:06.450Z,100470.44
2023-04-20T00:33:40.032Z,100480.16
2023-04-20T00:36:14.132Z,100495.09
2023-04-20T00:38:47.809Z,100498.72
2023-04-20T00:41:26.460Z,100503.56
2023-04-20T00:44:05.266Z,100513.69
2023-04-20T00:46:43.596Z,100510.84
2023-04-20T00:49:19.080Z,100516.91
2023-04-20T00:52:01.546Z,100512.06
2023-04-20T00:54:36.511Z,100504.38
2023-04-20T00:57:16.677Z,100500.75
2023-04-20T00:59:54.108Z,100495.91
2023-04-20T01:02:31.463Z,100489.44
2023-04-20T01:05:13.493Z,100478.56
2023-04-20T01:07:54.425Z,100475.31
2023-04-20T01:10:29.688Z,100471.66
2023-04-20T01:13:03.849Z,100458.34
2023-04-20T01:15:39.340Z,100449.06
2023-04-20T01:18:15.406Z,100439.75
2023-04-20T01:20:56.514Z,100428.88
2023-04-20T01:23:39.990Z,100433.69
2023-04-20T01:26:13.627Z,100424.03
2023-04-20T01:28:43.806Z,100417.16
2023-04-20T01:31:24.184Z,100415.56
2023-04-20T01:34:06.627Z,100418.41
2023-04-20T01:36:39.985Z,100418.78
2023-04-20T01:39:16.673Z,100418.78
2023-04-20T01:41:52.483Z,100422.41
2023-04-20T01:44:31.485Z,100413.94
2023-04-20T01:47:09.568Z,100420.00
2023-04-20T01:49:45.480Z,100430.09
2023-04-20T01:52:15.293Z,100437.34
2023-04-20T01:54:53.977Z,100432.50
2023-04-20T01:57:37.331Z,100432.53
2023-04-20T02:00:11.229Z,100430.50
2023-04-20T02:02:45.081Z,100432.91
2023-04-20T02:05:18.279Z,100434.13
2023-04-20T02:08:00.083Z,100446.25
2023-04-20T02:10:33.224Z,100436.97
2023-04-20T02:13:06.003Z,100440.59
2023-04-20T02:15:41.453Z,100438.16
2023-04-20T02:18:16.443Z,100437.78
2023-04-20T02:20:52.671Z,100429.31
2023-04-20T02:23:27.042Z,100429.31
2023-04-20T02:26:03.201Z,100432.13
2023-04-20T02:28:38.837Z,100427.28
2023-04-20T02:31:08.757Z,100430.50
2023-04-20T02:33:47.757Z,100429.31
2023-04-20T02:36:24.105Z,100432.13
2023-04-20T02:38:58.343Z,100434.53
2023-04-20T02:41:33.393Z,100433.75
2023-04-20T02:44:11.977Z,100430.50
2023-04-20T02:46:42.260Z,100422.03
2023-04-20T02:49:23.956Z,100419.63
2023-04-20T02:51:58.072Z,100412.34
2023-04-20T02:54:37.247Z,100414.34
2023-04-20T02:57:13.395Z,100415.97
2023-04-20T02:59:48.862Z,100418.41
2023-04-20T03:02:26.960Z,100409.13
2023-04-20T03:05:04.527Z,100417.59
2023-04-20T03:07:48.899Z,100416.78
2023-04-20T03:10:35.481Z,100414.38
2023-04-20T03:13:18.403Z,100414.38
2023-04-20T03:16:10.767Z,100406.69
2023-04-20T03:18:55.179Z,100406.69
2023-04-20T03:21:26.645Z,100408.31
2023-04-20T03:24:04.163Z,100411.16
2023-04-20T03:26:37.686Z,100403.06
2023-04-20T03:29:26.064Z,100403.06
2023-04-20T03:32:01.390Z,100410.31
2023-04-20T03:34:36.983Z,100399.03
2023-04-20T03:37:10.310Z,100401.47
2023-04-20T03:39:43.447Z,100406.31
2023-04-20T03:42:13.467Z,100401.84
2023-04-20T03:44:51.898Z,100405.09
2023-04-20T03:47:26.788Z,100397.41
2023-04-20T03:50:05.881Z,100393.78
2023-04-20T03:52:41.703Z,100394.97
2023-04-20T03:55:19.133Z,100404.28
2023-04-20T03:58:04.531Z,100407.91
2023-04-20T04:00:49.673Z,100403.06
2023-04-20T04:03:27.497Z,100397.81
2023-04-20T04:06:01.040Z,100399.03
2023-04-20T04:08:34.447Z,100397.81
2023-04-20T04:11:15.659Z,100393.78
2023-04-20T04:13:46.386Z,100394.97
2023-04-20T04:16:24.087Z,100407.13
2023-04-20T04:18:55.301Z,100406.69
2023-04-20T04:21:28.895Z,100409.53
2023-04-20T04:24:09.585Z,100412.75
2023-04-20T04:26:47.554Z,100415.56
2023-04-20T04:29:25.797Z,100418.81
2023-04-20T04:32:00.199Z,100422.44
2023-04-20T04:34:39.756Z,100415.97
2023-04-20T04:37:16.425Z,100414.38
2023-04-20T04:39:55.628Z,100420.81
2023-04-20T04:42:37.380Z,100421.22
2023-04-20T04:45:13.766Z,100415.97
2023-04-20T04:47:48.524Z,100415.56
2023-04-20T04:50:23.526Z,100410.34
2023-04-20T04:52:58.564Z,100398.22
2023-04-20T04:55:28.708Z,100392.16
2023-04-20T04:57:57.283Z,100407.50
2023-04-20T05:00:31.430Z,100425.69
2023-04-20T05:03:14.749Z,100421.63
2023-04-20T05:05:50.528Z,100424.84
2023-04-20T05:08:27.091Z,100421.22
2023-04-20T05:11:03.068Z,100418.00
2023-04-20T05:13:36.942Z,100420.41
2023-04-20T05:16:15.156Z,100419.59
2023-04-20T05:18:55.172Z,100421.22
2023-04-20T05:21:34.443Z,100420.81
2023-04-20T05:24:06.693Z,100426.88
2023-04-20T05:26:39.944Z,100426.47
2023-04-20T05:29:14.634Z,100435.34
2023-04-20T05:31:45.928Z,100430.09
2023-04-20T05:34:17.247Z,100428.09
2023-04-20T05:36:48.122Z,100436.56
2023-04-20T05:39:26.160Z,100432.13
2023-04-20T05:41:59.481Z,100434.53
2023-04-20T05:44:30.694Z,100436.16
2023-04-20T05:47:08.701Z,100436.97
2023-04-20T05:49:42.063Z,100441.00
2023-04-20T05:52:18.050Z,100454.72
2023-04-20T05:54:50.152Z,100449.06
2023-04-20T05:57:25.464Z,100452.31
2023-04-20T06:00:04.232Z,100456.75
2023-04-20T06:02:44.338Z,100449.06
2023-04-20T06:05:21.958Z,100448.66
2023-04-20T06:07:56.944Z,100445.84
2023-04-20T06:10:32.611Z,100439.41
2023-04-20T06:13:07.201Z,100439.41
2023-04-20T06:15:44.281Z,100437.78
2023-04-20T06:18:18.463Z,100441.41
2023-04-20T06:21:00.261Z,100438.97
2023-04-20T06:23:33.141Z,100441.41
2023-04-20T06:26:06.834Z,100443.78
2023-04-20T06:28:38.087Z,100443.78
2023-04-20T06:31:12.947Z,100441.38
2023-04-20T06:33:44.598Z,100437.72
2023-04-20T06:36:22.585Z,100440.94
2023-04-20T06:38:55.348Z,100447.81
2023-04-20T06:41:29.045Z,100445.78
2023-04-20T06:44:02.639Z,100451.72
2023-04-20T06:46:33.546Z,100458.31
2023-04-20T06:49:03.089Z,100456.69
2023-04-20T06:51:45.545Z,100462.72
2023-04-20T06:54:23.871Z,100459.50
2023-04-20T06:57:04.469Z,100466.75
2023-04-20T06:59:43.800Z,100464.75
2023-04-20T07:02:17.513Z,100465.16
2023-04-20T07:04:55.860Z,100464.31
2023-04-20T07:07:32.541Z,100464.72
2023-04-20T07:10:09.352Z,100472.38
2023-04-20T07:12:47.816Z,100470.81
2023-04-20T07:15:18.696Z,100471.22
2023-04-20T07:18:00.375Z,100462.69
2023-04-20T07:20:39.162Z,100462.66
2023-04-20T07:23:15.847Z,100469.09
2023-04-20T07:25:52.438Z,100469.88
2023-04-20T07:28:31.521Z,100471.16
2023-04-20T07:31:02.273Z,100469.94
2023-04-20T07:33:40.684Z,100471.53
2023-04-20T07:36:19.880Z,100475.59
2023-04-20T07:38:57.311Z,100479.63
2023-04-20T07:41:26.018Z,100483.66
2023-04-20T07:43:59.502Z,100481.59
2023-04-20T07:46:31.149Z,100488.09
2023-04-20T07:48:59.040Z,100484.06
2023-04-20T07:51:40.540Z,100484.03
2023-04-20T07:54:12.080Z,100490.09
2023-04-20T07:56:55.984Z,100486.44
2023-04-20T07:59:35.488Z,100481.53
2023-04-20T08:02:04.702Z,100492.41
2023-04-20T08:04:40.622Z,100492.09
2023-04-20T08:07:14.091Z,100490.91
2023-04-20T08:09:50.064Z,100482.41
2023-04-20T08:12:26.458Z,100492.53
2023-04-20T08:15:06.613Z,100484.06
2023-04-20T08:17:37.989Z,100478.00
2023-04-20T08:20:10.716Z,100478.41
2023-04-20T08:22:53.408Z,100482.47
2023-04-20T08:25:27.822Z,100483.28
2023-04-20T08:28:04.281Z,100486.09
2023-04-20T08:30:37.409Z,100487.69
2023-04-20T08:33:06.792Z,100485.69
2023-04-20T08:35:35.072Z,100490.13
2023-04-20T08:38:05.991Z,100478.00
2023-04-20T08:40:41.394Z,100479.63
2023-04-20T08:43:21.997Z,100482.44
2023-04-20T08:45:58.245Z,100480.84
2023-04-20T08:48:48.821Z,100478.41
2023-04-20T08:51:20.188Z,100476.41
2023-04-20T08:53:49.204Z,100478.50
2023-04-20T08:56:35.780Z,100472.81
2023-04-20T08:59:09.545Z,100465.56
2023-04-20T09:01:49.570Z,100467.59
2023-04-20T09:04:29.381Z,100470.84
2023-04-20T09:07:03.071Z,100473.69
2023-04-20T09:09:33.984Z,100472.88
2023-04-20T09:12:13.030Z,100469.25
2023-04-20T09:14:50.715Z,100481.75
2023-04-20T09:17:44.710Z,100485.81
2023-04-20T09:20:15.878Z,100472.06
2023-04-20T09:22:54.811Z,100468.88
2023-04-20T09:25:29.619Z,100473.72
2023-04-20T09:28:01.599Z,100465.63
2023-04-20T09:30:47.098Z,100466.84
2023-04-20T09:33:27.747Z,100466.41
2023-04-20T09:36:11.883Z,100468.03
2023-04-20T09:38:45.718Z,100482.19
2023-04-20T09:41:24.043Z,100480.56
2023-04-20T09:43:58.706Z,100481.78
2023-04-20T09:46:34.173Z,100483.78
2023-04-20T09:49:07.261Z,100481.38
2023-04-20T09:51:38.576Z,100487.00
2023-04-20T09:54:08.632Z,100487.41
2023-04-20T09:56:39.429Z,100485.41
2023-04-20T09:59:10.891Z,100491.84
2023-04-20T10:01:38.766Z,100488.63
2023-04-20T10:04:14.812Z,100494.25
2023-04-20T10:07:06.288Z,100495.91
2023-04-20T10:09:38.115Z,100493.47
2023-04-20T10:12:14.112Z,100493.47
2023-04-20T10:14:57.398Z,100498.72
2023-04-20T10:17:33.256Z,100506.41
2023-04-20T10:20:04.257Z,100495.91
2023-04-20T10:22:35.816Z,100499.13
2023-04-20T10:25:18.916Z,100499.13
2023-04-20T10:27:58.378Z,100496.28
2023-04-20T10:30:36.147Z,100503.16
2023-04-20T10:33:18.536Z,100503.97
2023-04-20T10:36:00.095Z,100500.75
2023-04-20T10:38:42.101Z,100511.25
2023-04-20T10:41:13.462Z,100513.69
2023-04-20T10:43:54.506Z,100517.31
2023-04-20T10:46:28.011Z,100527.00
2023-04-20T10:49:01.369Z,100528.22
2023-04-20T10:51:33.014Z,100533.84
2023-04-20T10:54:08.301Z,100537.06
2023-04-20T10:56:44.685Z,100529.00
2023-04-20T10:59:23.681Z,100518.94
2023-04-20T11:01:55.221Z,100508.44
2023-04-20T11:04:37.469Z,100511.25
2023-04-20T11:07:13.683Z,100509.66
2023-04-20T11:09:57.683Z,100503.16
2023-04-20T11:12:40.245Z,100489.03
2023-04-20T11:15:10.196Z,100472.09
2023-04-20T11:17:46.712Z,100464.81
2023-04-20T11:20:28.277Z,100472.09
2023-04-20T11:23:05.123Z,100470.88
2023-04-20T11:25:39.575Z,100476.50
2023-04-20T11:28:16.311Z,100475.31
2023-04-20T11:30:51.237Z,100474.09
2023-04-20T11:33:34.367Z,100474.91
2023-04-20T11:36:18.434Z,100463.22
2023-04-20T11:38:51.573Z,100462.00
2023-04-20T11:41:31.095Z,100462.78
2023-04-20T11:44:03.499Z,100465.63
2023-04-20T11:46:38.057Z,100471.28
2023-04-20T11:49:12.538Z,100476.50
2023-04-20T11:51:45.350Z,100473.69
2023-04-20T11:54:19.177Z,100468.44
2023-04-20T11:56:47.503Z,100468.81
2023-04-20T11:59:25.736Z,100472.88
2023-04-20T12:02:04.799Z,100478.94
2023-04-20T12:04:36.240Z,100485.81
2023-04-20T12:07:12.149Z,100487.00
2023-04-20T12:09:44.869Z,100481.31
2023-04-20T12:12:21.087Z,100476.03
2023-04-20T12:14:56.681Z,100483.31
2023-04-20T12:17:25.262Z,100476.03
2023-04-20T12:20:00.814Z,100471.16
2023-04-20T12:22:30.922Z,100471.16
2023-04-20T12:25:05.132Z,100466.34
2023-04-20T12:27:44.210Z,100467.13
2023-04-20T12:30:20.187Z,100471.16
2023-04-20T12:32:50.756Z,100469.91
2023-04-20T12:35:19.230Z,100463.47
2023-04-20T12:37:52.371Z,100459.00
2023-04-20T12:40:30.459Z,100454.91
2023-04-20T12:43:09.384Z,100455.75
2023-04-20T12:45:40.316Z,100452.19
2023-04-20T12:48:13.288Z,100448.94
2023-04-20T12:50:47.248Z,100449.75
2023-04-20T12:53:21.125Z,100444.91
2023-04-20T12:55:55.020Z,100440.50
2023-04-20T12:58:32.731Z,100436.88
2023-04-20T13:01:00.795Z,100431.22
2023-04-20T13:03:34.268Z,100431.22
2023-04-20T13:06:15.764Z,100424.75
2023-04-20T13:08:58.248Z,100419.13
2023-04-20T13:11:34.816Z,100421.59
2023-04-20T13:14:09.159Z,100421.16
2023-04-20T13:16:48.786Z,100423.19
2023-04-20T13:19:27.911Z,100428.47
2023-04-20T13:22:00.344Z,100425.66
2023-04-20T13:24:35.650Z,100429.28
2023-04-20T13:27:06.092Z,100429.25
2023-04-20T13:29:38.598Z,100426.84
2023-04-20T13:32:11.427Z,100424.81
2023-04-20T13:34:44.767Z,100430.06
2023-04-20T13:37:16.193Z,100426.44
2023-04-20T13:39:46.624Z,100436.94
2023-04-20T13:42:22.680Z,100422.41
2023-04-20T13:44:55.356Z,100422.41
2023-04-20T13:47:25.932Z,100428.06
2023-04-20T13:50:02.769Z,100428.06
2023-04-20T13:52:34.354Z,100420.81
2023-04-20T13:55:05.938Z,100421.22
2023-04-20T13:57:42.992Z,100427.25
2023-04-20T14:00:22.296Z,100430.09
2023-04-20T14:02:55.202Z,100419.19
2023-04-20T14:05:31.818Z,100418.38
2023-04-20T14:08:12.949Z,100426.44
2023-04-20T14:10:55.984Z,100424.03
2023-04-20T14:13:32.107Z,100427.25
2023-04-20T14:16:03.746Z,100424.84
2023-04-20T14:18:40.289Z,100432.50
2023-04-20T14:21:14.434Z,100425.66
2023-04-20T14:23:48.193Z,100426.06
2023-04-20T14:26:21.733Z,100429.69
2023-04-20T14:28:57.649Z,100420.41
2023-04-20T14:31:31.309Z,100435.31
2023-04-20T14:34:07.341Z,100435.34
2023-04-20T14:36:39.431Z,100433.28
2023-04-20T14:39:18.045Z,100434.91
2023-04-20T14:41:47.067Z,100440.59
2023-04-20T14:44:20.659Z,100439.78
2023-04-20T14:46:51.796Z,100432.09
2023-04-20T14:49:20.366Z,100448.25
2023-04-20T14:51:50.496Z,100441.38
2023-04-20T14:54:24.681Z,100436.91
2023-04-20T14:56:53.075Z,100449.44
2023-04-20T14:59:27.215Z,100436.13
2023-04-20T15:02:07.639Z,100437.72
2023-04-20T15:04:35.804Z,100434.09
2023-04-20T15:07:11.643Z,100445.00
2023-04-20T15:09:42.608Z,100435.19
2023-04-20T15:12:23.892Z,100436.41
2023-04-20T15:14:54.832Z,100437.63
2023-04-20T15:17:30.150Z,100438.03
2023-04-20T15:20:05.676Z,100435.97
2023-04-20T15:22:36.914Z,100434.66
2023-04-20T15:25:09.360Z,100424.84
2023-04-20T15:27:39.848Z,100430.75
2023-04-20T15:30:16.678Z,100423.09
2023-04-20T15:32:49.878Z,100427.84
2023-04-20T15:35:20.560Z,100429.59
2023-04-20T15:37:58.147Z,100432.94
2023-04-20T15:40:27.635Z,100427.41
2023-04-20T15:43:01.585Z,100425.72
2023-04-20T15:45:38.560Z,100428.47
2023-04-20T15:48:12.413Z,100433.63
2023-04-20T15:50:54.136Z,100430.22
2023-04-20T15:53:23.572Z,100431.63
2023-04-20T15:55:59.888Z,100427.72
2023-04-20T15:58:37.968Z,100433.44
2023-04-20T16:01:14.681Z,100433.53
2023-04-20T16:03:51.537Z,100427.13
2023-04-20T16:06:25.024Z,100433.59
2023-04-20T16:09:10.047Z,100439.69
2023-04-20T16:11:40.831Z,100438.06
2023-04-20T16:14:21.775Z,100443.34
2023-04-20T16:17:04.439Z,100450.19
2023-04-20T16:19:40.793Z,100439.31
2023-04-20T16:22:14.596Z,100435.25
2023-04-20T16:24:56.965Z,100436.09
2023-04-20T16:27:43.240Z,100443.81
2023-04-20T16:30:14.824Z,100445.03
2023-04-20T16:32:50.117Z,100442.19
2023-04-20T16:35:21.301Z,100442.19
2023-04-20T16:37:54.933Z,100442.56
2023-04-20T16:40:38.142Z,100444.22
2023-04-20T16:43:11.398Z,100452.28
2023-04-20T16:45:40.409Z,100437.75
2023-04-20T16:48:22.124Z,100446.22
2023-04-20T16:50:56.253Z,100453.91
2023-04-20T16:53:35.428Z,100446.25
2023-04-20T16:56:05.477Z,100446.66
2023-04-20T16:58:33.464Z,100444.22
2023-04-20T17:01:05.650Z,100443.44
2023-04-20T17:03:42.022Z,100449.06
2023-04-20T17:06:15.445Z,100451.09
2023-04-20T17:08:51.446Z,100454.72
2023-04-20T17:11:26.293Z,100462.00
2023-04-20T17:13:57.423Z,100468.88
2023-04-20T17:16:27.218Z,100475.31
2023-04-20T17:19:03.437Z,100491.88
2023-04-20T17:21:36.284Z,100499.13
2023-04-20T17:24:11.697Z,100511.66
2023-04-20T17:26:46.844Z,100508.41
2023-04-20T17:29:19.928Z,100521.34
2023-04-20T17:31:50.459Z,100541.06
2023-04-20T17:34:26.059Z,100552.78
2023-04-20T17:37:01.138Z,100556.78
2023-04-20T17:39:35.213Z,100555.59
2023-04-20T17:42:12.883Z,100555.19
2023-04-20T17:44:47.005Z,100566.91
2023-04-20T17:47:23.769Z,100568.94
2023-04-20T17:49:56.819Z,100580.59
2023-04-20T17:52:34.723Z,100580.59
2023-04-20T17:55:06.812Z,100583.00
2023-04-20T17:57:47.843Z,100591.91
2023-04-20T18:00:16.250Z,100584.66
2023-04-20T18:02:49.474Z,100590.28
2023-04-20T18:05:26.053Z,100589.50
2023-04-20T18:08:02.087Z,100579.38
2023-04-20T18:10:34.072Z,100581.81
2023-04-20T18:13:09.953Z,100587.06
2023-04-20T18:15:48.724Z,100573.72
2023-04-20T18:18:22.344Z,100567.28
2023-04-20T18:20:59.539Z,100567.63
2023-04-20T18:23:30.074Z,100565.22
2023-04-20T18:26:06.229Z,100563.59
2023-04-20T18:28:42.456Z,100563.59
2023-04-20T18:31:16.692Z,100561.16
2023-04-20T18:33:52.217Z,100568.03
2023-04-20T18:36:22.662Z,100570.03
2023-04-20T18:38:59.355Z,100574.88
2023-04-20T18:41:36.791Z,100576.91
2023-04-20T18:44:10.857Z,100580.13
2023-04-20T18:46:44.772Z,100577.31
2023-04-20T18:49:15.004Z,100584.19
2023-04-20T18:51:50.085Z,100585.41
2023-04-20T18:54:24.958Z,100582.16
2023-04-20T18:56:57.599Z,100582.56
2023-04-20T18:59:33.428Z,100585.78
2023-04-20T19:02:10.674Z,100592.63
2023-04-20T19:04:41.269Z,100578.09
2023-04-20T19:07:16.795Z,100574.84
2023-04-20T19:09:49.681Z,100577.66
2023-04-20T19:12:27.864Z,100584.53
2023-04-20T19:15:06.181Z,100579.69
2023-04-20T19:17:39.897Z,100581.28
2023-04-20T19:20:13.508Z,100576.06
2023-04-20T19:22:48.932Z,100581.69
2023-04-20T19:25:24.269Z,100586.53
2023-04-20T19:27:59.556Z,100582.91
2023-04-20T19:30:35.417Z,100588.56
2023-04-20T19:33:07.768Z,100590.97
2023-04-20T19:35:48.302Z,100593.00
2023-04-20T19:38:26.468Z,100590.53
2023-04-20T19:41:02.570Z,100597.81
2023-04-20T19:43:37.687Z,100593.78
2023-04-20T19:46:15.236Z,100588.13
2023-04-20T19:48:44.747Z,100584.94
2023-04-20T19:51:19.204Z,100590.16
2023-04-20T19:53:49.772Z,100595.00
2023-04-20T19:56:24.116Z,100601.44
2023-04-20T19:58:59.979Z,100591.75
2023-04-20T20:01:31.723Z,100584.09
2023-04-20T20:04:10.064Z,100588.94
2023-04-20T20:06:45.740Z,100591.75
2023-04-20T20:09:23.644Z,100596.19
2023-04-20T20:12:01.922Z,100599.00
2023-04-20T20:14:31.829Z,100600.63
2023-04-20T20:17:05.614Z,100601.81
2023-04-20T20:19:46.909Z,100609.47
2023-04-20T20:22:22.186Z,100609.47
2023-04-20T20:24:58.174Z,100602.59
2023-04-20T20:27:40.020Z,100599.38
2023-04-20T20:30:11.254Z,100592.91
2023-04-20T20:32:44.257Z,100598.16
2023-04-20T20:35:19.198Z,100599.38
2023-04-20T20:37:54.517Z,100606.19
2023-04-20T20:40:31.466Z,100600.16
2023-04-20T20:43:10.017Z,100598.94
2023-04-20T20:45:48.079Z,100610.59
2023-04-20T20:48:18.508Z,100613.44
2023-04-20T20:50:49.127Z,100614.66
2023-04-20T20:53:20.452Z,100609.00
2023-04-20T20:55:54.543Z,100608.56
2023-04-20T20:58:31.057Z,100606.59
2023-04-20T21:01:09.957Z,100607.78
2023-04-20T21:03:42.296Z,100606.97
2023-04-20T21:06:19.018Z,100610.22
2023-04-20T21:08:49.362Z,100607.78
2023-04-20T21:11:22.866Z,100606.19
2023-04-20T21:14:01.994Z,100594.09
2023-04-20T21:16:38.128Z,100590.03
2023-04-20T21:19:16.419Z,100589.25
2023-04-20T21:21:51.843Z,100594.09
2023-04-20T21:24:26.975Z,100588.44
2023-04-20T21:27:00.694Z,100600.53
2023-04-20T21:29:33.532Z,100602.91
2023-04-20T21:32:07.172Z,100596.91
2023-04-20T21:34:43.043Z,100600.50
2023-04-20T21:37:21.359Z,100601.31
2023-04-20T21:39:54.231Z,100597.25
2023-04-20T21:42:25.757Z,100596.03
2023-04-20T21:44:55.491Z,100590.38
2023-04-20T21:47:31.082Z,100597.66
2023-04-20T21:50:06.573Z,100587.56
2023-04-20T21:52:39.507Z,100585.16
2023-04-20T21:55:08.687Z,100592.41
2023-04-20T21:57:39.836Z,100592.03
2023-04-20T22:00:14.027Z,100592.81
2023-04-20T22:02:54.139Z,100597.66
2023-04-20T22:05:26.138Z,100604.09
2023-04-20T22:07:59.987Z,100599.66
2023-04-20T22:10:33.991Z,100598.84
2023-04-20T22:13:12.465Z,100596.84
2023-04-20T22:15:52.916Z,100601.66
2023-04-20T22:18:24.062Z,100603.31
2023-04-20T22:20:57.936Z,100606.94
2023-04-20T22:23:33.404Z,100613.38
2023-04-20T22:26:09.824Z,100611.78
2023-04-20T22:28:44.107Z,100615.78
2023-04-20T22:31:17.460Z,100608.94
2023-04-20T22:33:53.706Z,100611.34
2023-04-20T22:36:32.058Z,100614.94
2023-04-20T22:39:08.555Z,100606.50
2023-04-20T22:41:44.431Z,100614.94
2023-04-20T22:44:12.969Z,100617.38
2023-04-20T22:46:50.959Z,100615.38
2023-04-20T22:49:26.009Z,100608.91
2023-04-20T22:52:03.234Z,100614.13
2023-04-20T22:54:37.688Z,100611.31
2023-04-20T22:57:13.798Z,100613.31
2023-04-20T22:59:48.929Z,100612.53
2023-04-20T23:02:26.014Z,100614.16
2023-04-20T23:05:01.503Z,100614.16
2023-04-20T23:07:37.802Z,100609.72
2023-04-20T23:10:16.142Z,100610.09
2023-04-20T23:12:48.417Z,100610.13
2023-04-20T23:15:24.625Z,100603.66
2023-04-20T23:17:57.134Z,100603.28
2023-04-20T23:20:31.063Z,100600.81
2023-04-20T23:23:03.300Z,100601.22
2023-04-20T23:25:31.826Z,100603.22
2023-04-20T23:28:10.789Z,100606.44
2023-04-20T23:30:43.415Z,100600.81
2023-04-20T23:33:13.838Z,100604.84
2023-04-20T23:35:51.445Z,100591.56
2023-04-20T23:38:27.322Z,100598.41
2023-04-20T23:41:00.498Z,100592.34
2023-04-20T23:43:38.379Z,100588.28
2023-04-20T23:46:18.423Z,100587.09
2023-04-20T23:48:52.115Z,100591.13
2023-04-20T23:51:24.563Z,100587.91
2023-04-20T23:53:54.479Z,100587.91
2023-04-20T23:56:32.642Z,100584.25
2023-04-20T23:59:03.224Z,100582.63
